createdAt,value
2018-01-13T00:00:48.130Z,87.70
2018-01-13T00:03:15.590Z,87.70
2018-01-13T00:05:43.117Z,87.35
2018-01-13T00:08:10.590Z,88.01
2018-01-13T00:10:38.083Z,87.37
2018-01-13T00:13:05.611Z,86.88
2018-01-13T00:15:33.082Z,86.60
2018-01-13T00:18:00.541Z,87.34
2018-01-13T00:20:28.046Z,87.39
2018-01-13T00:22:55.553Z,87.22
2018-01-13T00:25:23.019Z,86.50
2018-01-13T00:27:50.515Z,86.65
2018-01-13T00:30:18.161Z,86.75
2018-01-13T00:32:45.642Z,87.39
2018-01-13T00:35:13.117Z,86.89
2018-01-13T00:37:40.617Z,86.20
2018-01-13T00:40:08.100Z,86.29
2018-01-13T00:42:35.585Z,86.61
2018-01-13T00:45:03.918Z,86.54
2018-01-13T00:47:31.406Z,86.11
2018-01-13T00:49:58.894Z,86.15
2018-01-13T00:52:26.405Z,86.01
2018-01-13T00:54:53.890Z,85.49
2018-01-13T00:57:21.434Z,85.35
2018-01-13T00:59:48.951Z,85.60
2018-01-13T01:02:16.417Z,85.62
2018-01-13T01:04:43.912Z,86.13
2018-01-13T01:07:11.424Z,85.62
2018-01-13T01:09:39.196Z,85.87
2018-01-13T01:12:06.717Z,85.48
2018-01-13T01:14:34.383Z,85.79
2018-01-13T01:17:01.848Z,85.83
2018-01-13T01:19:29.325Z,85.36
2018-01-13T01:21:56.814Z,85.22
2018-01-13T01:24:24.296Z,85.20
2018-01-13T01:26:51.946Z,84.15
2018-01-13T01:29:19.522Z,84.83
2018-01-13T01:31:47.047Z,84.66
2018-01-13T01:34:14.722Z,84.54
2018-01-13T01:36:42.218Z,84.62
2018-01-13T01:39:09.712Z,84.85
2018-01-13T01:41:37.202Z,85.20
2018-01-13T01:44:04.690Z,85.21
2018-01-13T01:46:32.165Z,85.07
2018-01-13T01:48:59.662Z,84.94
2018-01-13T01:51:27.349Z,84.67
2018-01-13T01:53:54.842Z,84.56
2018-01-13T01:56:22.327Z,84.40
2018-01-13T01:58:49.830Z,84.42
2018-01-13T02:01:17.292Z,84.06
2018-01-13T02:03:44.810Z,84.45
2018-01-13T02:06:12.279Z,84.95
2018-01-13T02:08:39.746Z,85.29
2018-01-13T02:11:07.290Z,85.21
2018-01-13T02:13:34.769Z,85.38
2018-01-13T02:16:02.299Z,85.27
2018-01-13T02:18:29.806Z,84.94
2018-01-13T02:20:57.289Z,84.81
2018-01-13T02:23:24.766Z,85.23
2018-01-13T02:25:52.251Z,85.54
2018-01-13T02:28:19.730Z,85.60
2018-01-13T02:30:47.214Z,85.51
2018-01-13T02:33:14.726Z,85.85
2018-01-13T02:35:42.181Z,85.22
2018-01-13T02:38:09.667Z,85.23
2018-01-13T02:40:37.213Z,85.03
2018-01-13T02:43:04.678Z,85.46
2018-01-13T02:45:32.170Z,85.38
2018-01-13T02:47:59.674Z,85.31
2018-01-13T02:50:27.126Z,85.51
2018-01-13T02:52:54.692Z,85.67
2018-01-13T02:55:22.226Z,85.54
2018-01-13T02:57:49.714Z,85.71
2018-01-13T03:00:17.178Z,85.76
2018-01-13T03:02:44.674Z,85.72
2018-01-13T03:05:12.174Z,85.95
2018-01-13T03:07:39.677Z,85.73
2018-01-13T03:10:07.410Z,85.42
2018-01-13T03:12:34.909Z,85.68
2018-01-13T03:15:02.378Z,85.76
2018-01-13T03:17:29.877Z,85.58
2018-01-13T03:19:57.366Z,85.13
2018-01-13T03:22:24.858Z,85.38
2018-01-13T03:24:52.346Z,85.53
2018-01-13T03:27:19.801Z,85.67
2018-01-13T03:29:47.353Z,85.63
2018-01-13T03:32:14.941Z,85.94
2018-01-13T03:34:42.441Z,85.79
2018-01-13T03:37:09.914Z,85.96
2018-01-13T03:39:37.419Z,85.90
2018-01-13T03:42:04.928Z,85.60
2018-01-13T03:44:32.433Z,84.82
2018-01-13T03:46:59.915Z,85.63
2018-01-13T03:49:27.414Z,84.82
2018-01-13T03:51:54.880Z,84.71
2018-01-13T03:54:22.366Z,85.12
2018-01-13T03:56:49.869Z,84.88
2018-01-13T03:59:17.364Z,84.93
2018-01-13T04:01:44.869Z,84.66
2018-01-13T04:04:12.352Z,84.63
2018-01-13T04:06:39.843Z,84.86
2018-01-13T04:09:07.353Z,84.62
2018-01-13T04:11:34.841Z,84.57
2018-01-13T04:14:02.324Z,84.65
2018-01-13T04:16:29.849Z,84.76
2018-01-13T04:18:57.325Z,84.88
2018-01-13T04:21:24.832Z,84.75
2018-01-13T04:23:52.322Z,84.98
2018-01-13T04:26:19.778Z,84.86
2018-01-13T04:31:21.582Z,85.08
2018-01-13T04:33:49.064Z,85.29
2018-01-13T04:36:16.566Z,84.83
2018-01-13T04:38:44.057Z,84.53
2018-01-13T04:41:11.541Z,84.32
2018-01-13T04:43:39.047Z,84.09
2018-01-13T04:46:06.567Z,84.33
2018-01-13T04:48:34.046Z,84.40
2018-01-13T04:51:01.544Z,84.33
2018-01-13T04:53:28.998Z,84.58
2018-01-13T04:55:56.477Z,84.27
2018-01-13T04:58:23.971Z,84.38
2018-01-13T05:00:51.472Z,84.35
2018-01-13T05:03:18.949Z,84.02
2018-01-13T05:05:46.465Z,84.00
2018-01-13T05:08:13.950Z,83.89
2018-01-13T05:10:41.414Z,83.71
2018-01-13T05:13:08.957Z,83.18
2018-01-13T05:15:36.439Z,83.28
2018-01-13T05:18:03.962Z,83.37
2018-01-13T05:20:31.481Z,83.44
2018-01-13T05:22:58.962Z,83.35
2018-01-13T05:25:26.575Z,83.67
2018-01-13T05:27:54.062Z,83.25
2018-01-13T05:30:21.520Z,83.60
2018-01-13T05:32:49.102Z,82.90
2018-01-13T05:35:16.578Z,82.64
2018-01-13T05:37:44.081Z,82.84
2018-01-13T05:40:11.536Z,83.11
2018-01-13T05:42:39.050Z,83.31
2018-01-13T05:45:06.514Z,83.04
2018-01-13T05:47:33.978Z,82.93
2018-01-13T05:50:01.472Z,82.33
2018-01-13T05:52:28.961Z,82.51
2018-01-13T05:54:56.858Z,82.60
2018-01-13T05:57:24.348Z,82.75
2018-01-13T05:59:51.810Z,82.69
2018-01-13T06:02:19.286Z,82.44
2018-01-13T06:04:46.789Z,81.97
2018-01-13T06:07:14.269Z,82.30
2018-01-13T06:09:41.763Z,82.09
2018-01-13T06:12:09.258Z,82.18
2018-01-13T06:14:36.752Z,82.53
2018-01-13T06:17:04.237Z,82.12
2018-01-13T06:19:31.737Z,81.59
2018-01-13T06:21:59.270Z,81.39
2018-01-13T06:24:26.750Z,81.40
2018-01-13T06:26:54.234Z,81.30
2018-01-13T06:29:21.722Z,80.92
2018-01-13T06:31:49.218Z,80.82
2018-01-13T06:34:16.720Z,80.68
2018-01-13T06:36:44.201Z,80.98
2018-01-13T06:39:11.720Z,80.67
2018-01-13T06:41:39.243Z,79.91
2018-01-13T06:44:06.720Z,79.97
2018-01-13T06:46:34.170Z,79.95
2018-01-13T06:49:01.659Z,79.94
2018-01-13T06:51:29.114Z,80.32
2018-01-13T06:53:56.625Z,79.91
2018-01-13T06:56:24.140Z,80.23
2018-01-13T06:58:51.630Z,79.45
2018-01-13T07:01:19.097Z,79.85
2018-01-13T07:03:46.665Z,80.10
2018-01-13T07:06:14.141Z,79.43
2018-01-13T07:08:41.638Z,79.78
2018-01-13T07:11:09.141Z,79.63
2018-01-13T07:13:36.627Z,79.62
2018-01-13T07:16:04.114Z,79.73
2018-01-13T07:18:31.589Z,79.65
2018-01-13T07:20:59.043Z,79.22
2018-01-13T07:23:26.657Z,79.07
2018-01-13T07:25:54.204Z,79.07
2018-01-13T07:28:21.670Z,78.89
2018-01-13T07:30:49.171Z,78.92
2018-01-13T07:33:16.647Z,78.83
2018-01-13T07:35:44.223Z,78.32
2018-01-13T07:38:11.970Z,78.41
2018-01-13T07:40:39.430Z,77.72
2018-01-13T07:43:06.887Z,78.44
2018-01-13T07:45:34.375Z,78.10
2018-01-13T07:48:01.864Z,78.13
2018-01-13T07:50:29.365Z,77.93
2018-01-13T07:52:56.918Z,77.18
2018-01-13T07:55:24.397Z,77.34
2018-01-13T07:57:52.039Z,76.87
2018-01-13T08:00:19.537Z,76.94
2018-01-13T08:02:46.998Z,77.32
2018-01-13T08:05:14.485Z,77.00
2018-01-13T08:07:42.053Z,76.68
2018-01-13T08:10:09.541Z,76.62
2018-01-13T08:12:37.066Z,76.51
2018-01-13T08:15:04.552Z,76.18
2018-01-13T08:17:32.046Z,75.86
2018-01-13T08:19:59.559Z,75.97
2018-01-13T08:22:27.082Z,76.25
2018-01-13T08:24:54.854Z,76.37
2018-01-13T08:27:22.397Z,76.98
2018-01-13T08:29:49.858Z,76.18
2018-01-13T08:32:17.323Z,76.15
2018-01-13T08:34:44.931Z,75.64
2018-01-13T08:37:12.409Z,75.68
2018-01-13T08:39:39.906Z,75.91
2018-01-13T08:42:07.782Z,75.64
2018-01-13T08:44:35.317Z,75.35
2018-01-13T08:47:02.808Z,75.51
2018-01-13T08:49:30.296Z,76.17
2018-01-13T08:51:57.749Z,76.46
2018-01-13T08:54:25.239Z,76.37
2018-01-13T08:56:53.026Z,76.15
2018-01-13T08:59:20.527Z,75.77
2018-01-13T09:01:52.373Z,75.45
2018-01-13T09:04:20.110Z,75.39
2018-01-13T09:06:47.660Z,75.39
2018-01-13T09:09:15.149Z,75.12
2018-01-13T09:11:42.675Z,75.29
2018-01-13T09:14:10.157Z,74.87
2018-01-13T09:16:37.618Z,74.71
2018-01-13T09:19:05.111Z,74.92
2018-01-13T09:21:32.594Z,74.16
2018-01-13T09:24:00.072Z,74.45
2018-01-13T09:26:27.850Z,74.50
2018-01-13T09:28:56.060Z,73.95
2018-01-13T09:31:23.571Z,72.44
2018-01-13T09:33:51.075Z,72.09
2018-01-13T09:36:18.545Z,70.13
2018-01-13T09:38:46.025Z,69.01
2018-01-13T09:41:13.539Z,69.98
2018-01-13T09:43:41.028Z,71.23
2018-01-13T09:46:09.440Z,71.78
2018-01-13T09:48:36.938Z,72.68
2018-01-13T09:51:04.457Z,72.87
2018-01-13T09:53:31.959Z,72.07
2018-01-13T09:55:59.427Z,72.24
2018-01-13T09:58:26.962Z,71.76
2018-01-13T10:00:54.445Z,71.01
2018-01-13T10:03:21.919Z,71.48
2018-01-13T10:05:49.510Z,71.49
2018-01-13T10:08:16.972Z,71.31
2018-01-13T10:10:46.064Z,71.30
2018-01-13T10:13:13.598Z,71.16
2018-01-13T10:15:41.081Z,70.77
2018-01-13T10:18:08.567Z,71.20
2018-01-13T10:23:10.750Z,71.01
2018-01-13T10:25:38.257Z,72.18
2018-01-13T10:28:05.744Z,71.67
2018-01-13T10:30:33.223Z,71.56
2018-01-13T10:33:00.710Z,71.53
2018-01-13T10:35:28.177Z,71.70
2018-01-13T10:37:55.670Z,71.84
2018-01-13T10:40:23.178Z,71.41
2018-01-13T10:42:50.647Z,71.48
2018-01-13T10:45:18.106Z,72.22
2018-01-13T10:47:45.796Z,71.97
2018-01-13T10:50:13.357Z,71.25
2018-01-13T10:52:40.863Z,70.81
2018-01-13T10:55:08.401Z,70.89
2018-01-13T10:57:35.890Z,71.44
2018-01-13T11:00:03.370Z,71.68
2018-01-13T11:02:30.950Z,70.94
2018-01-13T11:04:58.524Z,71.20
2018-01-13T11:07:25.982Z,70.68
2018-01-13T11:09:53.522Z,71.25
2018-01-13T11:12:20.990Z,71.17
2018-01-13T11:14:48.510Z,71.06
2018-01-13T11:17:16.086Z,71.43
2018-01-13T11:19:43.574Z,71.11
2018-01-13T11:22:11.070Z,70.58
2018-01-13T11:24:38.595Z,70.66
2018-01-13T11:27:06.072Z,69.82
2018-01-13T11:29:33.559Z,70.92
2018-01-13T11:32:01.038Z,70.08
2018-01-13T11:34:28.507Z,70.68
2018-01-13T11:36:56.189Z,70.99
2018-01-13T11:39:23.665Z,72.85
2018-01-13T11:41:51.186Z,71.03
2018-01-13T11:44:18.694Z,69.73
2018-01-13T11:46:46.187Z,68.83
2018-01-13T11:49:13.691Z,69.67
2018-01-13T11:51:41.453Z,70.19
2018-01-13T11:54:08.924Z,70.84
2018-01-13T11:56:36.450Z,70.70
2018-01-13T11:59:04.039Z,69.84
2018-01-13T12:01:31.534Z,70.54
2018-01-13T12:03:58.990Z,70.05
2018-01-13T12:06:26.498Z,69.80
2018-01-13T12:08:53.962Z,69.64
2018-01-13T12:11:21.469Z,68.93
2018-01-13T12:13:48.993Z,69.13
2018-01-13T12:16:16.485Z,69.37
2018-01-13T12:18:43.980Z,69.75
2018-01-13T12:21:11.503Z,68.73
2018-01-13T12:23:39.013Z,68.45
2018-01-13T12:26:06.482Z,68.56
2018-01-13T12:28:33.974Z,67.23
2018-01-13T12:31:01.478Z,67.30
2018-01-13T12:33:28.941Z,67.22
2018-01-13T12:35:56.430Z,67.25
2018-01-13T12:38:23.933Z,67.76
2018-01-13T12:40:51.930Z,68.27
2018-01-13T12:43:19.427Z,68.53
2018-01-13T12:45:46.900Z,68.66
2018-01-13T12:48:14.648Z,68.46
2018-01-13T12:50:42.142Z,67.95
2018-01-13T12:53:09.664Z,67.54
2018-01-13T12:55:37.178Z,66.84
2018-01-13T12:58:04.854Z,67.04
2018-01-13T13:00:32.314Z,66.98
2018-01-13T13:02:59.786Z,67.50
2018-01-13T13:05:27.299Z,67.73
2018-01-13T13:07:54.807Z,67.11
2018-01-13T13:10:22.279Z,66.83
2018-01-13T13:12:49.797Z,66.35
2018-01-13T13:15:17.354Z,66.58
2018-01-13T13:17:44.840Z,66.79
2018-01-13T13:20:12.316Z,66.48
2018-01-13T13:22:39.794Z,67.52
2018-01-13T13:25:07.254Z,66.92
2018-01-13T13:27:34.747Z,65.99
2018-01-13T13:30:02.259Z,66.19
2018-01-13T13:32:29.873Z,65.64
2018-01-13T13:34:57.380Z,65.45
2018-01-13T13:37:24.922Z,66.21
2018-01-13T13:39:52.407Z,66.36
2018-01-13T13:42:19.894Z,65.32
2018-01-13T13:44:47.382Z,65.29
2018-01-13T13:47:14.859Z,64.95
2018-01-13T13:49:42.323Z,65.51
2018-01-13T13:52:10.064Z,64.69
2018-01-13T13:54:37.558Z,65.17
2018-01-13T13:57:05.063Z,65.56
2018-01-13T13:59:32.614Z,65.04
2018-01-13T14:02:00.105Z,64.95
2018-01-13T14:04:27.602Z,64.75
2018-01-13T14:06:55.149Z,64.61
2018-01-13T14:09:22.606Z,64.92
2018-01-13T14:11:50.107Z,64.99
2018-01-13T14:14:17.603Z,65.00
2018-01-13T14:16:45.087Z,64.70
2018-01-13T14:19:12.552Z,63.77
2018-01-13T14:21:40.049Z,63.73
2018-01-13T14:24:07.722Z,63.80
2018-01-13T14:26:35.191Z,64.03
2018-01-13T14:29:02.721Z,63.88
2018-01-13T14:31:30.246Z,63.96
2018-01-13T14:33:57.803Z,64.12
2018-01-13T14:36:25.315Z,64.68
2018-01-13T14:38:52.799Z,64.61
2018-01-13T14:41:20.282Z,64.39
2018-01-13T14:43:47.814Z,64.38
2018-01-13T14:46:15.313Z,64.65
2018-01-13T14:48:42.806Z,64.18
2018-01-13T14:51:10.318Z,64.41
2018-01-13T14:53:37.791Z,64.46
2018-01-13T14:56:05.290Z,63.97
2018-01-13T14:58:32.775Z,64.46
2018-01-13T15:01:00.267Z,64.83
2018-01-13T15:03:27.734Z,64.67
2018-01-13T15:05:55.219Z,64.54
2018-01-13T15:08:22.700Z,65.23
2018-01-13T15:10:50.196Z,65.07
2018-01-13T15:13:17.658Z,65.34
2018-01-13T15:15:45.126Z,64.87
2018-01-13T15:18:12.707Z,65.30
2018-01-13T15:20:40.183Z,64.97
2018-01-13T15:23:07.698Z,65.46
2018-01-13T15:25:35.181Z,65.49
2018-01-13T15:28:02.673Z,65.38
2018-01-13T15:30:30.192Z,65.53
2018-01-13T15:32:57.706Z,65.25
2018-01-13T15:35:25.183Z,65.41
2018-01-13T15:37:52.686Z,65.41
2018-01-13T15:40:20.175Z,65.74
2018-01-13T15:42:47.664Z,66.00
2018-01-13T15:45:15.146Z,66.32
2018-01-13T15:47:42.645Z,65.98
2018-01-13T15:50:10.134Z,65.94
2018-01-13T15:52:37.633Z,65.81
2018-01-13T15:55:05.353Z,65.88
2018-01-13T15:57:32.839Z,65.87
2018-01-13T16:00:00.334Z,66.39
2018-01-13T16:02:27.850Z,66.49
2018-01-13T16:04:55.360Z,67.18
2018-01-13T16:07:22.930Z,66.40
2018-01-13T16:09:50.430Z,66.35
2018-01-13T16:12:17.891Z,66.61
2018-01-13T16:14:45.359Z,66.57
2018-01-13T16:17:12.870Z,66.33
2018-01-13T16:19:40.345Z,66.94
2018-01-13T16:22:07.861Z,66.82
2018-01-13T16:24:35.358Z,67.07
2018-01-13T16:27:02.864Z,67.57
2018-01-13T16:29:30.370Z,66.86
2018-01-13T16:31:57.845Z,67.11
2018-01-13T16:34:25.316Z,67.46
2018-01-13T16:36:52.818Z,67.67
2018-01-13T16:39:20.305Z,67.67
2018-01-13T16:41:47.815Z,67.51
2018-01-13T16:44:15.324Z,67.57
2018-01-13T16:46:43.831Z,68.05
2018-01-13T16:49:11.313Z,68.12
2018-01-13T16:51:38.820Z,68.40
2018-01-13T16:54:06.308Z,68.46
2018-01-13T16:56:33.788Z,67.99
2018-01-13T16:59:01.314Z,68.51
2018-01-13T17:01:28.850Z,68.22
2018-01-13T17:03:56.378Z,68.36
2018-01-13T17:06:23.858Z,68.52
2018-01-13T17:08:51.360Z,68.99
2018-01-13T17:11:18.858Z,68.92
2018-01-13T17:13:46.377Z,69.00
2018-01-13T17:16:13.909Z,69.34
2018-01-13T17:18:41.386Z,69.53
2018-01-13T17:21:08.946Z,69.98
2018-01-13T17:23:36.419Z,69.37
2018-01-13T17:26:03.898Z,69.27
2018-01-13T17:28:31.398Z,68.98
2018-01-13T17:30:58.902Z,68.88
2018-01-13T17:33:26.418Z,67.77
2018-01-13T17:35:53.930Z,67.83
2018-01-13T17:38:21.431Z,67.60
2018-01-13T17:40:48.943Z,67.70
2018-01-13T17:43:16.418Z,67.53
2018-01-13T17:45:43.919Z,67.58
2018-01-13T17:48:11.462Z,67.23
2018-01-13T17:50:39.099Z,67.21
2018-01-13T17:53:06.595Z,67.54
2018-01-13T17:55:34.106Z,67.34
2018-01-13T17:58:01.603Z,66.96
2018-01-13T18:00:29.063Z,66.88
2018-01-13T18:02:56.597Z,67.22
2018-01-13T18:05:24.114Z,67.16
2018-01-13T18:07:52.305Z,67.07
2018-01-13T18:10:19.809Z,66.90
2018-01-13T18:12:47.582Z,66.78
2018-01-13T18:15:15.073Z,66.42
2018-01-13T18:17:42.564Z,66.51
2018-01-13T18:20:10.072Z,65.96
2018-01-13T18:22:37.555Z,66.21
2018-01-13T18:25:05.029Z,66.12
2018-01-13T18:27:32.692Z,66.32
2018-01-13T18:30:00.204Z,66.65
2018-01-13T18:32:27.714Z,67.03
2018-01-13T18:34:55.227Z,66.69
2018-01-13T18:37:22.717Z,66.12
2018-01-13T18:42:24.119Z,66.06
2018-01-13T18:44:51.605Z,66.25
2018-01-13T18:47:19.112Z,66.62
2018-01-13T18:49:46.601Z,66.90
2018-01-13T18:52:14.100Z,67.04
2018-01-13T18:54:41.589Z,67.49
2018-01-13T18:57:09.076Z,67.09
2018-01-13T18:59:36.551Z,66.89
2018-01-13T19:02:04.074Z,67.58
2018-01-13T19:04:31.563Z,67.07
2018-01-13T19:06:59.051Z,67.38
2018-01-13T19:09:26.534Z,66.76
2018-01-13T19:11:54.048Z,66.69
2018-01-13T19:14:21.578Z,67.38
2018-01-13T19:16:49.178Z,66.97
2018-01-13T19:19:16.669Z,66.55
2018-01-13T19:21:44.239Z,66.55
2018-01-13T19:24:11.714Z,66.99
2018-01-13T19:26:39.246Z,67.08
2018-01-13T19:29:06.746Z,67.38
2018-01-13T19:31:34.219Z,67.30
2018-01-13T19:34:01.723Z,67.11
2018-01-13T19:36:29.198Z,67.14
2018-01-13T19:38:56.692Z,67.44
2018-01-13T19:41:24.220Z,67.38
2018-01-13T19:43:51.690Z,66.96
2018-01-13T19:46:19.172Z,67.42
2018-01-13T19:48:46.670Z,67.60
2018-01-13T19:51:14.168Z,67.02
2018-01-13T19:53:41.676Z,66.92
2018-01-13T19:56:09.207Z,67.33
2018-01-13T19:58:36.691Z,67.44
2018-01-13T20:01:04.203Z,67.53
2018-01-13T20:03:31.715Z,67.84
2018-01-13T20:05:59.192Z,67.57
2018-01-13T20:08:26.667Z,67.61
2018-01-13T20:10:54.168Z,67.43
2018-01-13T20:13:21.639Z,67.05
2018-01-13T20:15:49.175Z,67.09
2018-01-13T20:18:16.643Z,67.31
2018-01-13T20:20:44.140Z,67.34
2018-01-13T20:23:11.701Z,67.55
2018-01-13T20:25:39.236Z,67.61
2018-01-13T20:28:06.742Z,67.43
2018-01-13T20:30:34.242Z,67.65
2018-01-13T20:33:01.752Z,67.26
2018-01-13T20:35:29.260Z,67.03
2018-01-13T20:37:56.818Z,67.00
2018-01-13T20:40:24.346Z,66.69
2018-01-13T20:42:52.812Z,67.37
2018-01-13T20:45:20.541Z,67.27
2018-01-13T20:47:48.054Z,67.57
2018-01-13T20:50:15.552Z,67.22
2018-01-13T20:52:43.039Z,67.43
2018-01-13T20:55:10.552Z,66.94
2018-01-13T20:57:38.056Z,66.71
2018-01-13T21:00:05.525Z,66.76
2018-01-13T21:02:33.040Z,66.83
2018-01-13T21:05:00.741Z,66.87
2018-01-13T21:07:28.195Z,67.25
2018-01-13T21:09:55.670Z,67.37
2018-01-13T21:12:23.374Z,67.00
2018-01-13T21:14:50.857Z,66.62
2018-01-13T21:17:18.334Z,66.66
2018-01-13T21:19:45.860Z,66.82
2018-01-13T21:22:13.330Z,67.12
2018-01-13T21:24:40.834Z,66.09
2018-01-13T21:27:08.442Z,65.91
2018-01-13T21:29:35.921Z,66.58
2018-01-13T21:32:03.408Z,66.08
2018-01-13T21:34:30.912Z,66.01
2018-01-13T21:36:58.401Z,65.97
2018-01-13T21:39:25.954Z,66.42
2018-01-13T21:41:53.464Z,67.30
2018-01-13T21:44:20.965Z,66.21
2018-01-13T21:46:48.475Z,67.36
2018-01-13T21:49:15.986Z,67.28
2018-01-13T21:51:43.495Z,66.50
2018-01-13T21:54:10.985Z,66.41
2018-01-13T21:56:38.466Z,66.92
2018-01-13T21:59:05.966Z,66.35
2018-01-13T22:01:33.497Z,66.31
2018-01-13T22:04:01.000Z,67.54
2018-01-13T22:06:28.510Z,66.98
2018-01-13T22:08:56.003Z,66.01
2018-01-13T22:11:23.498Z,65.46
2018-01-13T22:13:50.996Z,66.21
2018-01-13T22:16:18.488Z,66.85
2018-01-13T22:18:46.002Z,66.21
2018-01-13T22:21:13.529Z,65.43
2018-01-13T22:23:41.005Z,65.41
2018-01-13T22:26:08.490Z,65.38
2018-01-13T22:28:35.993Z,66.07
2018-01-13T22:31:03.524Z,66.42
2018-01-13T22:33:31.038Z,65.89
2018-01-13T22:35:58.546Z,65.65
2018-01-13T22:38:26.066Z,65.63
2018-01-13T22:40:53.564Z,67.32
2018-01-13T22:43:21.062Z,66.32
2018-01-13T22:45:48.553Z,67.70
2018-01-13T22:48:16.050Z,67.18
2018-01-13T22:50:43.569Z,65.39
2018-01-13T22:53:11.066Z,65.83
2018-01-13T22:55:38.629Z,65.23
2018-01-13T22:58:06.218Z,66.33
2018-01-13T23:03:32.750Z,65.31
2018-01-13T23:06:00.290Z,66.50
2018-01-13T23:08:27.774Z,65.70
2018-01-13T23:10:55.287Z,65.63
2018-01-13T23:13:23.001Z,66.60
2018-01-13T23:15:50.504Z,66.01
2018-01-13T23:18:18.006Z,67.03
2018-01-13T23:20:45.693Z,65.80
2018-01-13T23:23:13.253Z,66.49
2018-01-13T23:25:41.441Z,66.61
2018-01-13T23:28:09.190Z,66.46
2018-01-13T23:30:36.706Z,67.32
2018-01-13T23:33:04.180Z,67.25
2018-01-13T23:35:31.752Z,67.17
2018-01-13T23:37:59.243Z,66.66
2018-01-13T23:40:26.720Z,66.73
2018-01-13T23:42:54.218Z,66.65
2018-01-13T23:45:21.724Z,66.70
2018-01-13T23:47:49.235Z,67.62
2018-01-13T23:50:16.746Z,67.20
2018-01-13T23:52:44.248Z,67.70
2018-01-13T23:55:11.705Z,66.84
2018-01-13T23:57:39.193Z,66.69
